ESSA

Stockholm-Arlanda Airport

Stockholm, Sweden
METAR ESSA 092220Z 26006KT 9999 OVC004 02/02 Q0985 R01L/29//95 R08/29//95 R01R/29//95 TEMPO BKN004
Observed Flight Rules
Dec-9 @ 22:20 UTC (20 minutes ago) Instrument Flight Rules
Wind Visibility Clouds
260° at 6 knots 10,000+ meters
  • Overcast at 400' AGL
Temperatures Readings
Current 2°C / 36°F
Dewpoint 2°C / 36°F
Humidity 100%
Altimeter 29.08" Hg
Pressure 985 hPa
Elevation 61
METAR ESSA 092220Z 26006KT 9999 OVC004 02/02 Q0985 R01L/29//95 R08/29//95 R01R/29//95 TEMPO BKN004
Observed Flight Rules
Dec-9 @ 22:20 UTC
(20 minutes ago)
LIFR
Wind Visibility
260° at 6 knots 10,000+ meters
Clouds
  • Overcast at 400' AGL
Temperature Dewpoint
2°C / 36°F 2°C / 36°F
Humidity Altimeter Pressure
100% 29.08" Hg 985 hPa